sensor_id;sensor_type;location;lat;lon;timestamp;temperature;humidity
59975;DHT22;62136;-35.664;-63.766;2024-03-29T00:00:08;25.80;46.00
59975;DHT22;62136;-35.664;-63.766;2024-03-29T00:02:35;25.80;45.80
59975;DHT22;62136;-35.664;-63.766;2024-03-29T00:05:02;25.80;45.60
59975;DHT22;62136;-35.664;-63.766;2024-03-29T00:07:29;25.70;45.70
59975;DHT22;62136;-35.664;-63.766;2024-03-29T00:09:56;25.80;45.70
59975;DHT22;62136;-35.664;-63.766;2024-03-29T00:12:23;25.70;45.80
59975;DHT22;62136;-35.664;-63.766;2024-03-29T00:14:51;25.80;46.00
59975;DHT22;62136;-35.664;-63.766;2024-03-29T00:17:18;25.70;45.50
59975;DHT22;62136;-35.664;-63.766;2024-03-29T00:19:45;25.80;45.60
59975;DHT22;62136;-35.664;-63.766;2024-03-29T00:22:13;25.80;45.60
59975;DHT22;62136;-35.664;-63.766;2024-03-29T00:24:40;25.70;45.30
59975;DHT22;62136;-35.664;-63.766;2024-03-29T00:27:08;25.80;45.40
59975;DHT22;62136;-35.664;-63.766;2024-03-29T00:29:35;25.70;45.30
59975;DHT22;62136;-35.664;-63.766;2024-03-29T00:32:03;25.70;45.40
59975;DHT22;62136;-35.664;-63.766;2024-03-29T00:34:30;25.60;45.30
59975;DHT22;62136;-35.664;-63.766;2024-03-29T00:36:57;25.70;45.20
59975;DHT22;62136;-35.664;-63.766;2024-03-29T00:39:24;25.70;45.50
59975;DHT22;62136;-35.664;-63.766;2024-03-29T00:41:51;25.70;45.50
59975;DHT22;62136;-35.664;-63.766;2024-03-29T00:44:18;25.70;45.10
59975;DHT22;62136;-35.664;-63.766;2024-03-29T00:46:45;25.60;45.00
59975;DHT22;62136;-35.664;-63.766;2024-03-29T00:49:13;25.70;45.20
59975;DHT22;62136;-35.664;-63.766;2024-03-29T00:51:40;25.60;45.10
59975;DHT22;62136;-35.664;-63.766;2024-03-29T00:54:07;25.70;45.20
59975;DHT22;62136;-35.664;-63.766;2024-03-29T00:56:34;25.60;44.80
59975;DHT22;62136;-35.664;-63.766;2024-03-29T00:59:01;25.60;45.00
59975;DHT22;62136;-35.664;-63.766;2024-03-29T01:01:28;25.60;45.20
59975;DHT22;62136;-35.664;-63.766;2024-03-29T01:03:55;25.60;45.00
59975;DHT22;62136;-35.664;-63.766;2024-03-29T01:06:22;25.60;45.10
59975;DHT22;62136;-35.664;-63.766;2024-03-29T01:08:49;25.60;45.30
59975;DHT22;62136;-35.664;-63.766;2024-03-29T01:11:16;25.60;44.80
59975;DHT22;62136;-35.664;-63.766;2024-03-29T01:13:43;25.60;44.80
59975;DHT22;62136;-35.664;-63.766;2024-03-29T01:16:10;25.60;44.90
59975;DHT22;62136;-35.664;-63.766;2024-03-29T01:18:37;25.60;44.90
59975;DHT22;62136;-35.664;-63.766;2024-03-29T01:21:05;25.50;45.40
59975;DHT22;62136;-35.664;-63.766;2024-03-29T01:23:32;25.60;44.70
59975;DHT22;62136;-35.664;-63.766;2024-03-29T01:25:59;25.50;44.60
59975;DHT22;62136;-35.664;-63.766;2024-03-29T01:28:26;25.50;44.80
59975;DHT22;62136;-35.664;-63.766;2024-03-29T01:30:53;25.50;44.70
59975;DHT22;62136;-35.664;-63.766;2024-03-29T01:33:21;25.50;44.80
59975;DHT22;62136;-35.664;-63.766;2024-03-29T01:35:48;25.50;44.70
59975;DHT22;62136;-35.664;-63.766;2024-03-29T01:38:15;25.50;45.20
59975;DHT22;62136;-35.664;-63.766;2024-03-29T01:40:43;25.50;44.60
59975;DHT22;62136;-35.664;-63.766;2024-03-29T01:43:10;25.50;44.70
59975;DHT22;62136;-35.664;-63.766;2024-03-29T01:45:40;25.50;44.80
59975;DHT22;62136;-35.664;-63.766;2024-03-29T01:48:09;25.50;44.70
59975;DHT22;62136;-35.664;-63.766;2024-03-29T01:50:37;25.50;44.70
59975;DHT22;62136;-35.664;-63.766;2024-03-29T01:53:06;25.50;44.60
59975;DHT22;62136;-35.664;-63.766;2024-03-29T01:55:35;25.50;44.50
59975;DHT22;62136;-35.664;-63.766;2024-03-29T02:00:32;25.40;44.40
59975;DHT22;62136;-35.664;-63.766;2024-03-29T02:02:59;25.50;44.50
59975;DHT22;62136;-35.664;-63.766;2024-03-29T02:05:28;25.40;44.40
59975;DHT22;62136;-35.664;-63.766;2024-03-29T02:07:55;25.40;44.40
59975;DHT22;62136;-35.664;-63.766;2024-03-29T02:10:23;25.40;44.40
59975;DHT22;62136;-35.664;-63.766;2024-03-29T02:12:50;25.40;44.40
59975;DHT22;62136;-35.664;-63.766;2024-03-29T02:15:17;25.40;44.70
59975;DHT22;62136;-35.664;-63.766;2024-03-29T02:17:44;25.40;44.50
59975;DHT22;62136;-35.664;-63.766;2024-03-29T02:20:11;25.40;44.30
59975;DHT22;62136;-35.664;-63.766;2024-03-29T02:22:46;25.40;44.40
59975;DHT22;62136;-35.664;-63.766;2024-03-29T02:25:17;25.40;44.40
59975;DHT22;62136;-35.664;-63.766;2024-03-29T02:27:45;25.40;44.40
59975;DHT22;62136;-35.664;-63.766;2024-03-29T02:30:16;25.40;44.30
59975;DHT22;62136;-35.664;-63.766;2024-03-29T02:32:43;25.40;44.60
59975;DHT22;62136;-35.664;-63.766;2024-03-29T02:35:10;25.30;45.60
59975;DHT22;62136;-35.664;-63.766;2024-03-29T02:37:38;25.30;44.80
59975;DHT22;62136;-35.664;-63.766;2024-03-29T02:40:05;25.40;45.10
59975;DHT22;62136;-35.664;-63.766;2024-03-29T02:42:35;25.40;45.00
59975;DHT22;62136;-35.664;-63.766;2024-03-29T02:45:03;25.40;44.60
59975;DHT22;62136;-35.664;-63.766;2024-03-29T02:47:30;25.30;44.50
59975;DHT22;62136;-35.664;-63.766;2024-03-29T02:49:57;25.30;44.60
59975;DHT22;62136;-35.664;-63.766;2024-03-29T02:52:24;25.20;44.40
59975;DHT22;62136;-35.664;-63.766;2024-03-29T02:54:51;25.30;44.60
59975;DHT22;62136;-35.664;-63.766;2024-03-29T02:57:18;25.30;44.50
59975;DHT22;62136;-35.664;-63.766;2024-03-29T02:59:45;25.30;44.60
59975;DHT22;62136;-35.664;-63.766;2024-03-29T03:02:12;25.30;44.40
59975;DHT22;62136;-35.664;-63.766;2024-03-29T03:04:39;25.30;44.60
59975;DHT22;62136;-35.664;-63.766;2024-03-29T03:07:06;25.20;44.50
59975;DHT22;62136;-35.664;-63.766;2024-03-29T03:09:51;25.20;44.50
59975;DHT22;62136;-35.664;-63.766;2024-03-29T03:12:36;25.20;44.40
59975;DHT22;62136;-35.664;-63.766;2024-03-29T03:15:03;25.20;44.40
59975;DHT22;62136;-35.664;-63.766;2024-03-29T03:17:31;25.10;45.40
59975;DHT22;62136;-35.664;-63.766;2024-03-29T03:19:58;25.10;45.20
59975;DHT22;62136;-35.664;-63.766;2024-03-29T03:22:25;25.20;44.90
59975;DHT22;62136;-35.664;-63.766;2024-03-29T03:24:52;25.10;44.70
59975;DHT22;62136;-35.664;-63.766;2024-03-29T03:27:19;25.10;44.90
59975;DHT22;62136;-35.664;-63.766;2024-03-29T03:29:46;25.20;44.90
59975;DHT22;62136;-35.664;-63.766;2024-03-29T03:32:13;25.10;44.70
59975;DHT22;62136;-35.664;-63.766;2024-03-29T03:34:41;25.10;44.80
59975;DHT22;62136;-35.664;-63.766;2024-03-29T03:37:07;25.10;44.90
59975;DHT22;62136;-35.664;-63.766;2024-03-29T03:39:34;25.10;44.70
59975;DHT22;62136;-35.664;-63.766;2024-03-29T03:42:02;25.10;44.70
59975;DHT22;62136;-35.664;-63.766;2024-03-29T03:44:29;25.10;44.70
59975;DHT22;62136;-35.664;-63.766;2024-03-29T03:46:56;25.10;44.70
59975;DHT22;62136;-35.664;-63.766;2024-03-29T03:49:23;25.10;44.70
59975;DHT22;62136;-35.664;-63.766;2024-03-29T03:51:50;25.00;44.60
59975;DHT22;62136;-35.664;-63.766;2024-03-29T03:54:17;25.00;44.50
59975;DHT22;62136;-35.664;-63.766;2024-03-29T03:56:44;25.00;44.50
59975;DHT22;62136;-35.664;-63.766;2024-03-29T03:59:11;25.00;44.70
59975;DHT22;62136;-35.664;-63.766;2024-03-29T04:01:38;24.90;45.50
59975;DHT22;62136;-35.664;-63.766;2024-03-29T04:04:05;25.00;45.10
59975;DHT22;62136;-35.664;-63.766;2024-03-29T04:06:32;25.00;45.20
59975;DHT22;62136;-35.664;-63.766;2024-03-29T04:08:59;25.00;45.20
59975;DHT22;62136;-35.664;-63.766;2024-03-29T04:11:25;25.00;45.00
59975;DHT22;62136;-35.664;-63.766;2024-03-29T04:13:53;25.00;45.00
59975;DHT22;62136;-35.664;-63.766;2024-03-29T04:16:20;25.00;45.00
59975;DHT22;62136;-35.664;-63.766;2024-03-29T04:18:47;24.90;44.90
59975;DHT22;62136;-35.664;-63.766;2024-03-29T04:21:14;24.90;44.90
59975;DHT22;62136;-35.664;-63.766;2024-03-29T04:23:41;24.90;44.90
59975;DHT22;62136;-35.664;-63.766;2024-03-29T04:26:08;24.90;44.90
59975;DHT22;62136;-35.664;-63.766;2024-03-29T04:28:35;24.90;44.90
59975;DHT22;62136;-35.664;-63.766;2024-03-29T04:31:03;24.90;45.00
59975;DHT22;62136;-35.664;-63.766;2024-03-29T04:33:30;24.80;46.00
59975;DHT22;62136;-35.664;-63.766;2024-03-29T04:36:02;24.80;45.50
59975;DHT22;62136;-35.664;-63.766;2024-03-29T04:38:30;24.90;45.50
59975;DHT22;62136;-35.664;-63.766;2024-03-29T04:40:58;24.80;45.30
59975;DHT22;62136;-35.664;-63.766;2024-03-29T04:43:27;24.90;45.30
59975;DHT22;62136;-35.664;-63.766;2024-03-29T04:46:13;24.80;45.30
59975;DHT22;62136;-35.664;-63.766;2024-03-29T04:48:42;24.80;45.10
59975;DHT22;62136;-35.664;-63.766;2024-03-29T04:51:12;24.80;45.30
59975;DHT22;62136;-35.664;-63.766;2024-03-29T04:53:40;24.80;45.30
59975;DHT22;62136;-35.664;-63.766;2024-03-29T04:56:07;24.80;45.10
59975;DHT22;62136;-35.664;-63.766;2024-03-29T04:58:34;24.80;45.50
59975;DHT22;62136;-35.664;-63.766;2024-03-29T05:01:01;24.70;46.20
59975;DHT22;62136;-35.664;-63.766;2024-03-29T05:03:28;24.70;45.50
59975;DHT22;62136;-35.664;-63.766;2024-03-29T05:05:55;24.70;45.60
59975;DHT22;62136;-35.664;-63.766;2024-03-29T05:08:23;24.80;45.60
59975;DHT22;62136;-35.664;-63.766;2024-03-29T05:10:50;24.70;45.60
59975;DHT22;62136;-35.664;-63.766;2024-03-29T05:13:18;24.80;45.70
59975;DHT22;62136;-35.664;-63.766;2024-03-29T05:15:48;24.70;45.60
59975;DHT22;62136;-35.664;-63.766;2024-03-29T05:18:15;24.70;45.10
59975;DHT22;62136;-35.664;-63.766;2024-03-29T05:20:42;24.70;45.50
59975;DHT22;62136;-35.664;-63.766;2024-03-29T05:23:14;24.70;45.40
59975;DHT22;62136;-35.664;-63.766;2024-03-29T05:25:41;24.70;45.80
59975;DHT22;62136;-35.664;-63.766;2024-03-29T05:28:09;24.70;46.20
59975;DHT22;62136;-35.664;-63.766;2024-03-29T05:30:36;24.70;45.80
59975;DHT22;62136;-35.664;-63.766;2024-03-29T05:33:04;24.70;46.00
59975;DHT22;62136;-35.664;-63.766;2024-03-29T05:35:34;24.70;45.90
59975;DHT22;62136;-35.664;-63.766;2024-03-29T05:38:01;24.70;45.60
59975;DHT22;62136;-35.664;-63.766;2024-03-29T05:40:29;24.70;45.70
59975;DHT22;62136;-35.664;-63.766;2024-03-29T05:42:56;24.70;45.90
59975;DHT22;62136;-35.664;-63.766;2024-03-29T05:45:28;24.60;45.90
59975;DHT22;62136;-35.664;-63.766;2024-03-29T05:47:56;24.70;45.90
59975;DHT22;62136;-35.664;-63.766;2024-03-29T05:50:24;24.60;45.70
59975;DHT22;62136;-35.664;-63.766;2024-03-29T05:52:52;24.60;46.90
59975;DHT22;62136;-35.664;-63.766;2024-03-29T05:55:19;24.60;46.30
59975;DHT22;62136;-35.664;-63.766;2024-03-29T05:57:47;24.60;46.30
59975;DHT22;62136;-35.664;-63.766;2024-03-29T06:00:15;24.60;46.00
59975;DHT22;62136;-35.664;-63.766;2024-03-29T06:02:43;24.60;46.00
59975;DHT22;62136;-35.664;-63.766;2024-03-29T06:05:14;24.60;46.00
59975;DHT22;62136;-35.664;-63.766;2024-03-29T06:07:41;24.60;46.20
59975;DHT22;62136;-35.664;-63.766;2024-03-29T06:10:08;24.50;46.00
59975;DHT22;62136;-35.664;-63.766;2024-03-29T06:12:37;24.50;45.90
59975;DHT22;62136;-35.664;-63.766;2024-03-29T06:15:07;24.50;46.00
59975;DHT22;62136;-35.664;-63.766;2024-03-29T06:17:52;24.50;47.30
59975;DHT22;62136;-35.664;-63.766;2024-03-29T06:20:19;24.50;46.30
59975;DHT22;62136;-35.664;-63.766;2024-03-29T06:22:46;24.50;46.10
59975;DHT22;62136;-35.664;-63.766;2024-03-29T06:25:14;24.50;46.30
59975;DHT22;62136;-35.664;-63.766;2024-03-29T06:27:42;24.50;46.30
59975;DHT22;62136;-35.664;-63.766;2024-03-29T06:30:16;24.50;46.20
59975;DHT22;62136;-35.664;-63.766;2024-03-29T06:32:43;24.40;46.10
59975;DHT22;62136;-35.664;-63.766;2024-03-29T06:35:12;24.40;46.10
59975;DHT22;62136;-35.664;-63.766;2024-03-29T06:37:39;24.40;46.10
59975;DHT22;62136;-35.664;-63.766;2024-03-29T06:40:08;24.40;46.30
59975;DHT22;62136;-35.664;-63.766;2024-03-29T06:42:35;24.40;47.00
59975;DHT22;62136;-35.664;-63.766;2024-03-29T06:45:03;24.40;46.60
59975;DHT22;62136;-35.664;-63.766;2024-03-29T06:47:32;24.40;46.40
59975;DHT22;62136;-35.664;-63.766;2024-03-29T06:49:59;24.40;46.40
59975;DHT22;62136;-35.664;-63.766;2024-03-29T06:52:26;24.40;46.50
59975;DHT22;62136;-35.664;-63.766;2024-03-29T06:54:53;24.40;46.20
59975;DHT22;62136;-35.664;-63.766;2024-03-29T06:57:20;24.30;46.10
59975;DHT22;62136;-35.664;-63.766;2024-03-29T06:59:51;24.30;46.30
59975;DHT22;62136;-35.664;-63.766;2024-03-29T07:02:19;24.30;46.20
59975;DHT22;62136;-35.664;-63.766;2024-03-29T07:04:46;24.30;47.60
59975;DHT22;62136;-35.664;-63.766;2024-03-29T07:07:13;24.30;46.50
59975;DHT22;62136;-35.664;-63.766;2024-03-29T07:09:40;24.40;46.50
59975;DHT22;62136;-35.664;-63.766;2024-03-29T07:12:08;24.40;46.50
59975;DHT22;62136;-35.664;-63.766;2024-03-29T07:14:35;24.30;46.30
59975;DHT22;62136;-35.664;-63.766;2024-03-29T07:17:02;24.30;46.10
59975;DHT22;62136;-35.664;-63.766;2024-03-29T07:19:29;24.30;46.30
59975;DHT22;62136;-35.664;-63.766;2024-03-29T07:21:56;24.30;46.40
59975;DHT22;62136;-35.664;-63.766;2024-03-29T07:24:23;24.30;46.20
59975;DHT22;62136;-35.664;-63.766;2024-03-29T07:26:50;24.30;47.20
59975;DHT22;62136;-35.664;-63.766;2024-03-29T07:29:18;24.30;46.60
59975;DHT22;62136;-35.664;-63.766;2024-03-29T07:31:45;24.30;46.50
59975;DHT22;62136;-35.664;-63.766;2024-03-29T07:34:12;24.30;46.50
59975;DHT22;62136;-35.664;-63.766;2024-03-29T07:36:39;24.30;46.50
59975;DHT22;62136;-35.664;-63.766;2024-03-29T07:39:06;24.20;46.40
59975;DHT22;62136;-35.664;-63.766;2024-03-29T07:41:34;24.20;46.40
59975;DHT22;62136;-35.664;-63.766;2024-03-29T07:44:01;24.20;46.40
59975;DHT22;62136;-35.664;-63.766;2024-03-29T07:46:35;24.20;46.30
59975;DHT22;62136;-35.664;-63.766;2024-03-29T07:49:03;24.20;46.30
59975;DHT22;62136;-35.664;-63.766;2024-03-29T07:51:30;24.10;47.00
59975;DHT22;62136;-35.664;-63.766;2024-03-29T07:53:58;24.10;46.40
59975;DHT22;62136;-35.664;-63.766;2024-03-29T07:56:25;24.20;46.50
59975;DHT22;62136;-35.664;-63.766;2024-03-29T07:58:52;24.10;46.50
59975;DHT22;62136;-35.664;-63.766;2024-03-29T08:01:23;24.10;46.40
59975;DHT22;62136;-35.664;-63.766;2024-03-29T08:03:51;24.10;46.50
59975;DHT22;62136;-35.664;-63.766;2024-03-29T08:06:22;24.10;46.50
59975;DHT22;62136;-35.664;-63.766;2024-03-29T08:08:52;24.10;46.50
59975;DHT22;62136;-35.664;-63.766;2024-03-29T08:11:19;24.10;46.30
59975;DHT22;62136;-35.664;-63.766;2024-03-29T08:13:46;24.10;46.40
59975;DHT22;62136;-35.664;-63.766;2024-03-29T08:16:13;24.10;47.20
59975;DHT22;62136;-35.664;-63.766;2024-03-29T08:18:45;24.10;46.60
59975;DHT22;62136;-35.664;-63.766;2024-03-29T08:21:12;24.10;46.40
59975;DHT22;62136;-35.664;-63.766;2024-03-29T08:23:40;24.10;46.40
59975;DHT22;62136;-35.664;-63.766;2024-03-29T08:26:08;24.10;46.50
59975;DHT22;62136;-35.664;-63.766;2024-03-29T08:28:35;24.10;46.60
59975;DHT22;62136;-35.664;-63.766;2024-03-29T08:31:05;24.00;46.50
59975;DHT22;62136;-35.664;-63.766;2024-03-29T08:33:35;24.10;46.10
59975;DHT22;62136;-35.664;-63.766;2024-03-29T08:36:05;24.00;46.20
59975;DHT22;62136;-35.664;-63.766;2024-03-29T08:38:33;24.00;46.80
59975;DHT22;62136;-35.664;-63.766;2024-03-29T08:41:00;24.10;46.60
59975;DHT22;62136;-35.664;-63.766;2024-03-29T08:43:27;24.10;46.60
59975;DHT22;62136;-35.664;-63.766;2024-03-29T08:45:54;24.00;46.80
59975;DHT22;62136;-35.664;-63.766;2024-03-29T08:48:23;24.00;46.50
59975;DHT22;62136;-35.664;-63.766;2024-03-29T08:50:51;24.00;46.40
59975;DHT22;62136;-35.664;-63.766;2024-03-29T08:53:18;24.00;46.40
59975;DHT22;62136;-35.664;-63.766;2024-03-29T08:55:46;24.00;46.70
59975;DHT22;62136;-35.664;-63.766;2024-03-29T08:58:17;24.00;46.40
59975;DHT22;62136;-35.664;-63.766;2024-03-29T09:00:54;24.00;47.20
59975;DHT22;62136;-35.664;-63.766;2024-03-29T09:03:24;24.00;46.80
59975;DHT22;62136;-35.664;-63.766;2024-03-29T09:05:51;24.00;46.50
59975;DHT22;62136;-35.664;-63.766;2024-03-29T09:08:19;23.90;46.40
59975;DHT22;62136;-35.664;-63.766;2024-03-29T09:10:46;23.90;46.60
59975;DHT22;62136;-35.664;-63.766;2024-03-29T09:13:14;23.90;46.50
59975;DHT22;62136;-35.664;-63.766;2024-03-29T09:15:42;23.90;46.50
59975;DHT22;62136;-35.664;-63.766;2024-03-29T09:18:09;23.90;46.40
59975;DHT22;62136;-35.664;-63.766;2024-03-29T09:20:57;23.90;46.50
59975;DHT22;62136;-35.664;-63.766;2024-03-29T09:23:26;23.90;47.40
59975;DHT22;62136;-35.664;-63.766;2024-03-29T09:25:55;23.90;46.40
59975;DHT22;62136;-35.664;-63.766;2024-03-29T09:28:23;23.90;46.60
59975;DHT22;62136;-35.664;-63.766;2024-03-29T09:33:16;23.90;46.70
59975;DHT22;62136;-35.664;-63.766;2024-03-29T09:35:43;23.90;46.70
59975;DHT22;62136;-35.664;-63.766;2024-03-29T09:38:10;23.90;46.60
59975;DHT22;62136;-35.664;-63.766;2024-03-29T09:40:38;23.80;46.60
59975;DHT22;62136;-35.664;-63.766;2024-03-29T09:43:05;23.80;46.50
59975;DHT22;62136;-35.664;-63.766;2024-03-29T09:45:37;23.80;46.80
59975;DHT22;62136;-35.664;-63.766;2024-03-29T09:48:05;23.90;47.30
59975;DHT22;62136;-35.664;-63.766;2024-03-29T09:50:33;23.80;46.70
59975;DHT22;62136;-35.664;-63.766;2024-03-29T09:53:03;23.80;46.80
59975;DHT22;62136;-35.664;-63.766;2024-03-29T09:55:31;23.80;46.70
59975;DHT22;62136;-35.664;-63.766;2024-03-29T09:57:58;23.80;46.90
59975;DHT22;62136;-35.664;-63.766;2024-03-29T10:00:28;23.80;46.90
59975;DHT22;62136;-35.664;-63.766;2024-03-29T10:02:56;23.80;47.00
59975;DHT22;62136;-35.664;-63.766;2024-03-29T10:05:25;23.80;46.60
59975;DHT22;62136;-35.664;-63.766;2024-03-29T10:07:54;23.80;47.70
59975;DHT22;62136;-35.664;-63.766;2024-03-29T10:10:22;23.80;47.00
59975;DHT22;62136;-35.664;-63.766;2024-03-29T10:12:49;23.80;46.70
59975;DHT22;62136;-35.664;-63.766;2024-03-29T10:15:16;23.80;47.00
59975;DHT22;62136;-35.664;-63.766;2024-03-29T10:17:48;23.80;47.10
59975;DHT22;62136;-35.664;-63.766;2024-03-29T10:20:19;23.80;46.70
59975;DHT22;62136;-35.664;-63.766;2024-03-29T10:22:47;23.70;46.60
59975;DHT22;62136;-35.664;-63.766;2024-03-29T10:25:14;23.70;46.80
59975;DHT22;62136;-35.664;-63.766;2024-03-29T10:27:41;23.70;46.80
59975;DHT22;62136;-35.664;-63.766;2024-03-29T10:30:10;23.70;46.70
59975;DHT22;62136;-35.664;-63.766;2024-03-29T10:32:39;23.70;47.40
59975;DHT22;62136;-35.664;-63.766;2024-03-29T10:35:09;23.70;46.70
59975;DHT22;62136;-35.664;-63.766;2024-03-29T10:37:41;23.70;46.70
59975;DHT22;62136;-35.664;-63.766;2024-03-29T10:40:10;23.70;46.90
59975;DHT22;62136;-35.664;-63.766;2024-03-29T10:42:37;23.70;47.00
59975;DHT22;62136;-35.664;-63.766;2024-03-29T10:45:06;23.70;46.70
59975;DHT22;62136;-35.664;-63.766;2024-03-29T10:47:33;23.70;46.90
59975;DHT22;62136;-35.664;-63.766;2024-03-29T10:50:00;23.60;46.90
59975;DHT22;62136;-35.664;-63.766;2024-03-29T10:52:31;23.70;47.30
59975;DHT22;62136;-35.664;-63.766;2024-03-29T10:54:59;23.70;46.70
59975;DHT22;62136;-35.664;-63.766;2024-03-29T10:57:27;23.70;46.70
59975;DHT22;62136;-35.664;-63.766;2024-03-29T11:00:13;23.70;47.00
59975;DHT22;62136;-35.664;-63.766;2024-03-29T11:05:24;23.60;46.90
59975;DHT22;62136;-35.664;-63.766;2024-03-29T11:07:54;23.70;46.90
59975;DHT22;62136;-35.664;-63.766;2024-03-29T11:10:39;23.70;46.80
59975;DHT22;62136;-35.664;-63.766;2024-03-29T11:15:51;23.70;46.90
59975;DHT22;62136;-35.664;-63.766;2024-03-29T11:18:19;23.70;47.00
59975;DHT22;62136;-35.664;-63.766;2024-03-29T11:20:47;23.70;47.00
59975;DHT22;62136;-35.664;-63.766;2024-03-29T11:23:21;23.70;46.60
59975;DHT22;62136;-35.664;-63.766;2024-03-29T11:25:50;23.80;47.40
59975;DHT22;62136;-35.664;-63.766;2024-03-29T11:28:25;23.80;47.20
59975;DHT22;62136;-35.664;-63.766;2024-03-29T11:30:53;23.80;47.30
59975;DHT22;62136;-35.664;-63.766;2024-03-29T11:35:53;23.80;47.30
59975;DHT22;62136;-35.664;-63.766;2024-03-29T11:38:20;23.80;47.10
59975;DHT22;62136;-35.664;-63.766;2024-03-29T11:41:12;23.80;47.50
59975;DHT22;62136;-35.664;-63.766;2024-03-29T11:43:40;23.80;48.00
59975;DHT22;62136;-35.664;-63.766;2024-03-29T11:46:13;23.80;47.70
59975;DHT22;62136;-35.664;-63.766;2024-03-29T11:48:41;23.80;48.60
59975;DHT22;62136;-35.664;-63.766;2024-03-29T11:51:12;23.80;48.40
59975;DHT22;62136;-35.664;-63.766;2024-03-29T11:53:41;23.80;47.90
59975;DHT22;62136;-35.664;-63.766;2024-03-29T11:56:09;23.80;47.60
59975;DHT22;62136;-35.664;-63.766;2024-03-29T11:58:38;23.80;48.20
59975;DHT22;62136;-35.664;-63.766;2024-03-29T12:01:05;23.90;48.90
59975;DHT22;62136;-35.664;-63.766;2024-03-29T12:03:37;23.90;47.00
59975;DHT22;62136;-35.664;-63.766;2024-03-29T12:06:04;23.90;48.20
59975;DHT22;62136;-35.664;-63.766;2024-03-29T12:08:33;23.90;48.60
59975;DHT22;62136;-35.664;-63.766;2024-03-29T12:11:01;23.90;48.00
59975;DHT22;62136;-35.664;-63.766;2024-03-29T12:13:30;23.90;49.10
59975;DHT22;62136;-35.664;-63.766;2024-03-29T12:15:58;23.90;49.00
59975;DHT22;62136;-35.664;-63.766;2024-03-29T12:18:26;23.90;48.20
59975;DHT22;62136;-35.664;-63.766;2024-03-29T12:20:54;23.90;48.20
59975;DHT22;62136;-35.664;-63.766;2024-03-29T12:23:22;23.90;48.20
59975;DHT22;62136;-35.664;-63.766;2024-03-29T12:25:51;23.90;47.40
59975;DHT22;62136;-35.664;-63.766;2024-03-29T12:28:20;23.90;47.90
59975;DHT22;62136;-35.664;-63.766;2024-03-29T12:30:48;23.90;48.20
59975;DHT22;62136;-35.664;-63.766;2024-03-29T12:33:18;24.00;47.90
59975;DHT22;62136;-35.664;-63.766;2024-03-29T12:35:50;24.00;47.90
59975;DHT22;62136;-35.664;-63.766;2024-03-29T12:38:20;24.00;48.00
59975;DHT22;62136;-35.664;-63.766;2024-03-29T12:40:49;24.00;48.10
59975;DHT22;62136;-35.664;-63.766;2024-03-29T12:43:21;24.00;48.40
59975;DHT22;62136;-35.664;-63.766;2024-03-29T12:45:50;24.10;48.20
59975;DHT22;62136;-35.664;-63.766;2024-03-29T12:48:19;24.10;48.50
59975;DHT22;62136;-35.664;-63.766;2024-03-29T12:50:47;24.10;48.30
59975;DHT22;62136;-35.664;-63.766;2024-03-29T12:53:15;24.10;48.60
59975;DHT22;62136;-35.664;-63.766;2024-03-29T12:55:48;24.20;49.10
59975;DHT22;62136;-35.664;-63.766;2024-03-29T12:58:18;24.20;49.30
59975;DHT22;62136;-35.664;-63.766;2024-03-29T13:00:48;24.20;49.50
59975;DHT22;62136;-35.664;-63.766;2024-03-29T13:03:15;24.30;49.70
59975;DHT22;62136;-35.664;-63.766;2024-03-29T13:05:42;24.30;49.50
59975;DHT22;62136;-35.664;-63.766;2024-03-29T13:08:14;24.30;49.90
59975;DHT22;62136;-35.664;-63.766;2024-03-29T13:10:44;24.30;49.60
59975;DHT22;62136;-35.664;-63.766;2024-03-29T13:13:12;24.40;49.40
59975;DHT22;62136;-35.664;-63.766;2024-03-29T13:15:39;24.40;48.90
59975;DHT22;62136;-35.664;-63.766;2024-03-29T13:18:09;24.50;49.80
59975;DHT22;62136;-35.664;-63.766;2024-03-29T13:20:37;24.50;49.70
59975;DHT22;62136;-35.664;-63.766;2024-03-29T13:23:08;24.50;49.80
59975;DHT22;62136;-35.664;-63.766;2024-03-29T13:25:36;24.50;49.50
59975;DHT22;62136;-35.664;-63.766;2024-03-29T13:28:04;24.50;49.50
59975;DHT22;62136;-35.664;-63.766;2024-03-29T13:30:32;24.60;50.10
59975;DHT22;62136;-35.664;-63.766;2024-03-29T13:32:59;24.60;49.70
59975;DHT22;62136;-35.664;-63.766;2024-03-29T13:35:26;24.60;49.20
59975;DHT22;62136;-35.664;-63.766;2024-03-29T13:37:53;24.70;49.50
59975;DHT22;62136;-35.664;-63.766;2024-03-29T13:40:22;24.70;49.70
59975;DHT22;62136;-35.664;-63.766;2024-03-29T13:42:51;24.70;50.10
59975;DHT22;62136;-35.664;-63.766;2024-03-29T13:45:18;24.70;50.00
59975;DHT22;62136;-35.664;-63.766;2024-03-29T13:47:45;24.80;49.30
59975;DHT22;62136;-35.664;-63.766;2024-03-29T13:50:14;24.80;50.20
59975;DHT22;62136;-35.664;-63.766;2024-03-29T13:52:42;24.80;49.70
59975;DHT22;62136;-35.664;-63.766;2024-03-29T13:55:09;24.90;49.90
59975;DHT22;62136;-35.664;-63.766;2024-03-29T13:57:37;24.80;49.50
59975;DHT22;62136;-35.664;-63.766;2024-03-29T14:00:05;24.90;49.60
59975;DHT22;62136;-35.664;-63.766;2024-03-29T14:02:33;24.90;49.60
59975;DHT22;62136;-35.664;-63.766;2024-03-29T14:05:01;24.90;49.90
59975;DHT22;62136;-35.664;-63.766;2024-03-29T14:07:28;25.00;49.70
59975;DHT22;62136;-35.664;-63.766;2024-03-29T14:09:55;25.00;49.50
59975;DHT22;62136;-35.664;-63.766;2024-03-29T14:12:25;25.00;49.30
59975;DHT22;62136;-35.664;-63.766;2024-03-29T14:14:52;25.00;49.70
59975;DHT22;62136;-35.664;-63.766;2024-03-29T14:17:20;25.00;49.80
59975;DHT22;62136;-35.664;-63.766;2024-03-29T14:19:48;25.10;50.20
59975;DHT22;62136;-35.664;-63.766;2024-03-29T14:22:16;25.10;50.00
59975;DHT22;62136;-35.664;-63.766;2024-03-29T14:24:46;25.10;50.10
59975;DHT22;62136;-35.664;-63.766;2024-03-29T14:27:13;25.20;50.20
59975;DHT22;62136;-35.664;-63.766;2024-03-29T14:29:40;25.20;50.30
59975;DHT22;62136;-35.664;-63.766;2024-03-29T14:32:11;25.20;50.50
59975;DHT22;62136;-35.664;-63.766;2024-03-29T14:34:38;25.20;50.80
59975;DHT22;62136;-35.664;-63.766;2024-03-29T14:37:11;25.30;51.20
59975;DHT22;62136;-35.664;-63.766;2024-03-29T14:39:40;25.30;50.50
59975;DHT22;62136;-35.664;-63.766;2024-03-29T14:42:09;25.40;50.40
59975;DHT22;62136;-35.664;-63.766;2024-03-29T14:44:39;25.40;50.60
59975;DHT22;62136;-35.664;-63.766;2024-03-29T14:47:06;25.40;50.70
59975;DHT22;62136;-35.664;-63.766;2024-03-29T14:49:33;25.40;51.30
59975;DHT22;62136;-35.664;-63.766;2024-03-29T14:52:00;25.40;50.30
59975;DHT22;62136;-35.664;-63.766;2024-03-29T14:54:27;25.50;51.10
59975;DHT22;62136;-35.664;-63.766;2024-03-29T14:56:55;25.60;50.90
59975;DHT22;62136;-35.664;-63.766;2024-03-29T14:59:22;25.50;50.80
59975;DHT22;62136;-35.664;-63.766;2024-03-29T15:01:49;25.50;51.20
59975;DHT22;62136;-35.664;-63.766;2024-03-29T15:04:16;25.60;51.60
59975;DHT22;62136;-35.664;-63.766;2024-03-29T15:06:43;25.60;51.00